sensor_id;sensor_type;location;lat;lon;timestamp;temperature;humidity
12557;DHT22;6344;49.932;8.308;2022-10-16T00:00:34;13.40;99.90
12557;DHT22;6344;49.932;8.308;2022-10-16T00:03:01;13.40;99.90
12557;DHT22;6344;49.932;8.308;2022-10-16T00:05:28;13.40;99.90
12557;DHT22;6344;49.932;8.308;2022-10-16T00:07:55;13.50;99.90
12557;DHT22;6344;49.932;8.308;2022-10-16T00:10:23;13.50;99.90
12557;DHT22;6344;49.932;8.308;2022-10-16T00:12:50;13.40;99.90
12557;DHT22;6344;49.932;8.308;2022-10-16T00:15:16;13.30;99.90
12557;DHT22;6344;49.932;8.308;2022-10-16T00:17:43;13.30;99.90
12557;DHT22;6344;49.932;8.308;2022-10-16T00:20:10;13.20;99.90
12557;DHT22;6344;49.932;8.308;2022-10-16T00:22:36;13.30;99.90
12557;DHT22;6344;49.932;8.308;2022-10-16T00:25:04;13.50;99.90
12557;DHT22;6344;49.932;8.308;2022-10-16T00:27:32;13.40;99.90
12557;DHT22;6344;49.932;8.308;2022-10-16T00:29:59;13.30;99.90
12557;DHT22;6344;49.932;8.308;2022-10-16T00:32:25;13.30;99.90
12557;DHT22;6344;49.932;8.308;2022-10-16T00:34:52;13.40;99.90
12557;DHT22;6344;49.932;8.308;2022-10-16T00:37:20;13.40;99.90
12557;DHT22;6344;49.932;8.308;2022-10-16T00:39:47;13.30;99.90
12557;DHT22;6344;49.932;8.308;2022-10-16T00:42:15;13.40;99.90
12557;DHT22;6344;49.932;8.308;2022-10-16T00:44:48;13.40;99.90
12557;DHT22;6344;49.932;8.308;2022-10-16T00:47:21;13.50;99.90
12557;DHT22;6344;49.932;8.308;2022-10-16T00:49:50;13.50;99.90
12557;DHT22;6344;49.932;8.308;2022-10-16T00:52:18;13.60;99.90
12557;DHT22;6344;49.932;8.308;2022-10-16T00:54:46;13.60;99.90
12557;DHT22;6344;49.932;8.308;2022-10-16T00:57:13;13.90;99.90
12557;DHT22;6344;49.932;8.308;2022-10-16T00:59:41;14.00;99.90
12557;DHT22;6344;49.932;8.308;2022-10-16T01:02:11;14.10;99.90
12557;DHT22;6344;49.932;8.308;2022-10-16T01:04:40;14.30;99.90
12557;DHT22;6344;49.932;8.308;2022-10-16T01:07:12;14.40;99.90
12557;DHT22;6344;49.932;8.308;2022-10-16T01:09:51;14.50;99.90
12557;DHT22;6344;49.932;8.308;2022-10-16T01:12:23;14.60;99.90
12557;DHT22;6344;49.932;8.308;2022-10-16T01:14:59;14.70;99.90
12557;DHT22;6344;49.932;8.308;2022-10-16T01:17:33;14.70;99.90
12557;DHT22;6344;49.932;8.308;2022-10-16T01:20:08;14.80;99.90
12557;DHT22;6344;49.932;8.308;2022-10-16T01:22:47;14.70;99.90
12557;DHT22;6344;49.932;8.308;2022-10-16T01:25:21;14.60;99.90
12557;DHT22;6344;49.932;8.308;2022-10-16T01:27:52;14.60;99.90
12557;DHT22;6344;49.932;8.308;2022-10-16T01:30:23;14.40;99.90
12557;DHT22;6344;49.932;8.308;2022-10-16T01:32:56;14.50;99.90
12557;DHT22;6344;49.932;8.308;2022-10-16T01:35:26;14.40;99.90
12557;DHT22;6344;49.932;8.308;2022-10-16T01:37:57;14.40;99.90
12557;DHT22;6344;49.932;8.308;2022-10-16T01:40:27;14.40;99.90
12557;DHT22;6344;49.932;8.308;2022-10-16T01:43:00;14.50;99.90
12557;DHT22;6344;49.932;8.308;2022-10-16T01:45:28;14.40;99.90
12557;DHT22;6344;49.932;8.308;2022-10-16T01:47:57;14.50;99.90
12557;DHT22;6344;49.932;8.308;2022-10-16T01:50:24;14.40;99.90
12557;DHT22;6344;49.932;8.308;2022-10-16T01:52:55;14.40;99.90
12557;DHT22;6344;49.932;8.308;2022-10-16T01:55:27;14.40;99.90
12557;DHT22;6344;49.932;8.308;2022-10-16T01:57:56;14.40;99.90
12557;DHT22;6344;49.932;8.308;2022-10-16T02:00:26;14.50;99.90
12557;DHT22;6344;49.932;8.308;2022-10-16T02:02:55;14.60;99.90
12557;DHT22;6344;49.932;8.308;2022-10-16T02:05:26;14.60;99.90
12557;DHT22;6344;49.932;8.308;2022-10-16T02:07:53;14.60;99.90
12557;DHT22;6344;49.932;8.308;2022-10-16T02:10:20;14.60;99.90
12557;DHT22;6344;49.932;8.308;2022-10-16T02:12:50;14.60;99.90
12557;DHT22;6344;49.932;8.308;2022-10-16T02:15:20;14.70;99.90
12557;DHT22;6344;49.932;8.308;2022-10-16T02:17:46;14.70;99.90
12557;DHT22;6344;49.932;8.308;2022-10-16T02:20:13;14.60;99.90
12557;DHT22;6344;49.932;8.308;2022-10-16T02:22:43;14.70;99.90
12557;DHT22;6344;49.932;8.308;2022-10-16T02:25:12;14.80;99.90
12557;DHT22;6344;49.932;8.308;2022-10-16T02:27:46;14.80;99.90
12557;DHT22;6344;49.932;8.308;2022-10-16T02:30:20;14.80;99.90
12557;DHT22;6344;49.932;8.308;2022-10-16T02:32:49;14.80;99.90
12557;DHT22;6344;49.932;8.308;2022-10-16T02:35:19;14.80;99.90
12557;DHT22;6344;49.932;8.308;2022-10-16T02:37:47;14.80;99.90
12557;DHT22;6344;49.932;8.308;2022-10-16T02:40:14;14.80;99.90
12557;DHT22;6344;49.932;8.308;2022-10-16T02:42:41;14.90;99.90
12557;DHT22;6344;49.932;8.308;2022-10-16T02:45:10;14.90;99.90
12557;DHT22;6344;49.932;8.308;2022-10-16T02:47:38;14.80;99.90
12557;DHT22;6344;49.932;8.308;2022-10-16T02:50:05;14.80;99.90
12557;DHT22;6344;49.932;8.308;2022-10-16T02:52:32;14.90;99.90
12557;DHT22;6344;49.932;8.308;2022-10-16T02:54:59;14.90;99.90
12557;DHT22;6344;49.932;8.308;2022-10-16T02:57:26;14.90;99.90
12557;DHT22;6344;49.932;8.308;2022-10-16T02:59:53;14.90;99.90
12557;DHT22;6344;49.932;8.308;2022-10-16T03:02:19;14.90;99.90
12557;DHT22;6344;49.932;8.308;2022-10-16T03:04:47;14.80;99.90
12557;DHT22;6344;49.932;8.308;2022-10-16T03:07:14;15.10;99.90
12557;DHT22;6344;49.932;8.308;2022-10-16T03:09:41;15.10;99.90
12557;DHT22;6344;49.932;8.308;2022-10-16T03:12:07;15.00;99.90
12557;DHT22;6344;49.932;8.308;2022-10-16T03:14:34;14.90;99.90
12557;DHT22;6344;49.932;8.308;2022-10-16T03:17:01;14.80;99.90
12557;DHT22;6344;49.932;8.308;2022-10-16T03:19:27;14.70;99.90
12557;DHT22;6344;49.932;8.308;2022-10-16T03:21:55;14.70;99.90
12557;DHT22;6344;49.932;8.308;2022-10-16T03:24:22;14.80;99.90
12557;DHT22;6344;49.932;8.308;2022-10-16T03:26:49;14.70;99.90
12557;DHT22;6344;49.932;8.308;2022-10-16T03:29:16;14.70;99.90
12557;DHT22;6344;49.932;8.308;2022-10-16T03:31:42;14.60;99.90
12557;DHT22;6344;49.932;8.308;2022-10-16T03:34:09;14.60;99.90
12557;DHT22;6344;49.932;8.308;2022-10-16T03:36:36;14.60;99.90
12557;DHT22;6344;49.932;8.308;2022-10-16T03:39:04;14.70;99.90
12557;DHT22;6344;49.932;8.308;2022-10-16T03:41:31;14.70;99.90
12557;DHT22;6344;49.932;8.308;2022-10-16T03:43:57;14.70;99.90
12557;DHT22;6344;49.932;8.308;2022-10-16T03:46:24;14.60;99.90
12557;DHT22;6344;49.932;8.308;2022-10-16T03:48:51;14.60;99.90
12557;DHT22;6344;49.932;8.308;2022-10-16T03:51:17;14.60;99.90
12557;DHT22;6344;49.932;8.308;2022-10-16T03:53:44;14.60;99.90
12557;DHT22;6344;49.932;8.308;2022-10-16T03:56:12;14.50;99.90
12557;DHT22;6344;49.932;8.308;2022-10-16T03:58:39;14.50;99.90
12557;DHT22;6344;49.932;8.308;2022-10-16T04:01:06;14.50;99.90
12557;DHT22;6344;49.932;8.308;2022-10-16T04:03:33;14.60;99.90
12557;DHT22;6344;49.932;8.308;2022-10-16T04:06:00;14.70;99.90
12557;DHT22;6344;49.932;8.308;2022-10-16T04:08:26;14.60;99.90
12557;DHT22;6344;49.932;8.308;2022-10-16T04:10:53;14.70;99.90
12557;DHT22;6344;49.932;8.308;2022-10-16T04:13:21;14.70;99.90
12557;DHT22;6344;49.932;8.308;2022-10-16T04:15:48;14.70;99.90
12557;DHT22;6344;49.932;8.308;2022-10-16T04:18:14;14.80;99.90
12557;DHT22;6344;49.932;8.308;2022-10-16T04:20:41;14.70;99.90
12557;DHT22;6344;49.932;8.308;2022-10-16T04:23:08;14.70;99.90
12557;DHT22;6344;49.932;8.308;2022-10-16T04:25:34;14.80;99.90
12557;DHT22;6344;49.932;8.308;2022-10-16T04:28:01;14.70;99.90
12557;DHT22;6344;49.932;8.308;2022-10-16T04:30:29;14.60;99.90
12557;DHT22;6344;49.932;8.308;2022-10-16T04:32:56;14.60;99.90
12557;DHT22;6344;49.932;8.308;2022-10-16T04:35:23;14.60;99.90
12557;DHT22;6344;49.932;8.308;2022-10-16T04:37:49;14.60;99.90
12557;DHT22;6344;49.932;8.308;2022-10-16T04:40:16;14.50;99.90
12557;DHT22;6344;49.932;8.308;2022-10-16T04:42:43;14.50;99.90
12557;DHT22;6344;49.932;8.308;2022-10-16T04:45:10;14.70;99.90
12557;DHT22;6344;49.932;8.308;2022-10-16T04:47:38;14.60;99.90
12557;DHT22;6344;49.932;8.308;2022-10-16T04:50:05;14.50;99.90
12557;DHT22;6344;49.932;8.308;2022-10-16T04:52:32;14.40;99.90
12557;DHT22;6344;49.932;8.308;2022-10-16T04:54:59;14.30;99.90
12557;DHT22;6344;49.932;8.308;2022-10-16T04:57:28;14.30;99.90
12557;DHT22;6344;49.932;8.308;2022-10-16T04:59:55;14.40;99.90
12557;DHT22;6344;49.932;8.308;2022-10-16T05:02:21;14.30;99.90
12557;DHT22;6344;49.932;8.308;2022-10-16T05:04:49;14.30;99.90
12557;DHT22;6344;49.932;8.308;2022-10-16T05:07:16;14.30;99.90
12557;DHT22;6344;49.932;8.308;2022-10-16T05:09:43;14.20;99.90
12557;DHT22;6344;49.932;8.308;2022-10-16T05:12:10;14.50;99.90
12557;DHT22;6344;49.932;8.308;2022-10-16T05:14:36;14.40;99.90
12557;DHT22;6344;49.932;8.308;2022-10-16T05:17:03;14.40;99.90
12557;DHT22;6344;49.932;8.308;2022-10-16T05:19:30;14.30;99.90
12557;DHT22;6344;49.932;8.308;2022-10-16T05:21:58;14.20;99.90
12557;DHT22;6344;49.932;8.308;2022-10-16T05:24:24;14.20;99.90
12557;DHT22;6344;49.932;8.308;2022-10-16T05:26:51;14.20;99.90
12557;DHT22;6344;49.932;8.308;2022-10-16T05:29:18;14.10;99.90
12557;DHT22;6344;49.932;8.308;2022-10-16T05:31:45;14.10;99.90
12557;DHT22;6344;49.932;8.308;2022-10-16T05:34:12;14.00;99.90
12557;DHT22;6344;49.932;8.308;2022-10-16T05:36:39;13.90;99.90
12557;DHT22;6344;49.932;8.308;2022-10-16T05:39:07;13.90;99.90
12557;DHT22;6344;49.932;8.308;2022-10-16T05:41:34;13.80;99.90
12557;DHT22;6344;49.932;8.308;2022-10-16T05:44:03;13.80;99.90
12557;DHT22;6344;49.932;8.308;2022-10-16T05:46:30;13.80;99.90
12557;DHT22;6344;49.932;8.308;2022-10-16T05:48:57;13.90;99.90
12557;DHT22;6344;49.932;8.308;2022-10-16T05:51:24;13.90;99.90
12557;DHT22;6344;49.932;8.308;2022-10-16T05:53:52;14.00;99.90
12557;DHT22;6344;49.932;8.308;2022-10-16T05:56:20;14.00;99.90
12557;DHT22;6344;49.932;8.308;2022-10-16T05:58:46;14.00;99.90
12557;DHT22;6344;49.932;8.308;2022-10-16T06:01:15;14.00;99.90
12557;DHT22;6344;49.932;8.308;2022-10-16T06:03:42;14.00;99.90
12557;DHT22;6344;49.932;8.308;2022-10-16T06:06:10;14.00;99.90
12557;DHT22;6344;49.932;8.308;2022-10-16T06:08:37;14.30;99.90
12557;DHT22;6344;49.932;8.308;2022-10-16T06:11:05;14.20;99.90
12557;DHT22;6344;49.932;8.308;2022-10-16T06:13:33;14.20;99.90
12557;DHT22;6344;49.932;8.308;2022-10-16T06:16:01;14.30;99.90
12557;DHT22;6344;49.932;8.308;2022-10-16T06:18:28;14.30;99.90
12557;DHT22;6344;49.932;8.308;2022-10-16T06:20:56;14.20;99.90
12557;DHT22;6344;49.932;8.308;2022-10-16T06:23:23;14.40;99.90
12557;DHT22;6344;49.932;8.308;2022-10-16T06:25:50;14.50;99.90
12557;DHT22;6344;49.932;8.308;2022-10-16T06:28:17;14.50;99.90
12557;DHT22;6344;49.932;8.308;2022-10-16T06:30:45;14.50;99.90
12557;DHT22;6344;49.932;8.308;2022-10-16T06:33:11;14.50;99.90
12557;DHT22;6344;49.932;8.308;2022-10-16T06:35:38;14.40;99.90
12557;DHT22;6344;49.932;8.308;2022-10-16T06:38:05;14.40;99.90
12557;DHT22;6344;49.932;8.308;2022-10-16T06:40:31;14.40;99.90
12557;DHT22;6344;49.932;8.308;2022-10-16T06:42:58;14.50;99.90
12557;DHT22;6344;49.932;8.308;2022-10-16T06:45:25;14.50;99.90
12557;DHT22;6344;49.932;8.308;2022-10-16T06:47:53;14.50;99.90
12557;DHT22;6344;49.932;8.308;2022-10-16T06:50:19;14.50;99.90
12557;DHT22;6344;49.932;8.308;2022-10-16T06:52:46;14.60;99.90
12557;DHT22;6344;49.932;8.308;2022-10-16T06:55:13;14.60;99.90
12557;DHT22;6344;49.932;8.308;2022-10-16T06:57:40;14.60;99.90
12557;DHT22;6344;49.932;8.308;2022-10-16T07:00:07;14.60;99.90
12557;DHT22;6344;49.932;8.308;2022-10-16T07:02:34;14.80;99.90
12557;DHT22;6344;49.932;8.308;2022-10-16T07:05:02;14.70;99.90
12557;DHT22;6344;49.932;8.308;2022-10-16T07:07:29;14.70;99.90
12557;DHT22;6344;49.932;8.308;2022-10-16T07:09:58;14.80;99.90
12557;DHT22;6344;49.932;8.308;2022-10-16T07:12:25;14.80;99.90
12557;DHT22;6344;49.932;8.308;2022-10-16T07:14:51;14.90;99.90
12557;DHT22;6344;49.932;8.308;2022-10-16T07:17:19;15.00;99.90
12557;DHT22;6344;49.932;8.308;2022-10-16T07:19:46;15.00;99.90
12557;DHT22;6344;49.932;8.308;2022-10-16T07:22:14;15.10;99.90
12557;DHT22;6344;49.932;8.308;2022-10-16T07:24:40;15.20;99.90
12557;DHT22;6344;49.932;8.308;2022-10-16T07:27:08;15.30;99.90
12557;DHT22;6344;49.932;8.308;2022-10-16T07:29:35;15.30;99.90
12557;DHT22;6344;49.932;8.308;2022-10-16T07:32:02;15.30;99.90
12557;DHT22;6344;49.932;8.308;2022-10-16T07:34:29;15.40;99.90
12557;DHT22;6344;49.932;8.308;2022-10-16T07:36:55;15.50;99.90
12557;DHT22;6344;49.932;8.308;2022-10-16T07:39:23;15.50;99.90
12557;DHT22;6344;49.932;8.308;2022-10-16T07:41:50;15.50;99.90
12557;DHT22;6344;49.932;8.308;2022-10-16T07:44:17;15.50;99.90
12557;DHT22;6344;49.932;8.308;2022-10-16T07:46:43;15.50;99.90
12557;DHT22;6344;49.932;8.308;2022-10-16T07:49:10;15.60;99.90
12557;DHT22;6344;49.932;8.308;2022-10-16T07:51:37;15.70;99.90
12557;DHT22;6344;49.932;8.308;2022-10-16T07:54:04;15.80;99.90
12557;DHT22;6344;49.932;8.308;2022-10-16T07:56:32;16.00;99.90
12557;DHT22;6344;49.932;8.308;2022-10-16T07:58:59;16.20;99.90
12557;DHT22;6344;49.932;8.308;2022-10-16T08:01:26;16.20;99.90
12557;DHT22;6344;49.932;8.308;2022-10-16T08:03:53;16.10;99.90
12557;DHT22;6344;49.932;8.308;2022-10-16T08:06:21;16.20;99.90
12557;DHT22;6344;49.932;8.308;2022-10-16T08:08:48;16.30;99.90
12557;DHT22;6344;49.932;8.308;2022-10-16T08:11:15;16.40;99.90
12557;DHT22;6344;49.932;8.308;2022-10-16T08:13:43;16.40;99.90
12557;DHT22;6344;49.932;8.308;2022-10-16T08:16:10;16.50;99.90
12557;DHT22;6344;49.932;8.308;2022-10-16T08:18:37;16.60;99.90
12557;DHT22;6344;49.932;8.308;2022-10-16T08:21:05;16.70;99.90
12557;DHT22;6344;49.932;8.308;2022-10-16T08:23:32;16.80;99.90
12557;DHT22;6344;49.932;8.308;2022-10-16T08:26:03;16.70;99.90
12557;DHT22;6344;49.932;8.308;2022-10-16T08:28:30;16.80;99.90
12557;DHT22;6344;49.932;8.308;2022-10-16T08:31:04;16.70;99.90
12557;DHT22;6344;49.932;8.308;2022-10-16T08:33:31;16.60;99.90
12557;DHT22;6344;49.932;8.308;2022-10-16T08:36:00;16.50;99.90
12557;DHT22;6344;49.932;8.308;2022-10-16T08:38:26;16.60;99.90
12557;DHT22;6344;49.932;8.308;2022-10-16T08:40:59;16.70;99.90
12557;DHT22;6344;49.932;8.308;2022-10-16T08:43:40;16.80;99.90
12557;DHT22;6344;49.932;8.308;2022-10-16T08:46:24;17.10;99.90
12557;DHT22;6344;49.932;8.308;2022-10-16T08:48:54;17.20;99.90
12557;DHT22;6344;49.932;8.308;2022-10-16T08:51:23;17.40;99.90
12557;DHT22;6344;49.932;8.308;2022-10-16T08:53:54;17.60;99.90
12557;DHT22;6344;49.932;8.308;2022-10-16T08:56:21;17.60;99.90
12557;DHT22;6344;49.932;8.308;2022-10-16T08:58:49;17.50;99.90
12557;DHT22;6344;49.932;8.308;2022-10-16T09:01:20;17.50;99.90
12557;DHT22;6344;49.932;8.308;2022-10-16T09:04:07;17.50;99.90
12557;DHT22;6344;49.932;8.308;2022-10-16T09:06:46;17.50;99.90
12557;DHT22;6344;49.932;8.308;2022-10-16T09:09:25;17.50;99.90
12557;DHT22;6344;49.932;8.308;2022-10-16T09:11:59;17.50;99.90
12557;DHT22;6344;49.932;8.308;2022-10-16T09:14:44;17.60;99.90
12557;DHT22;6344;49.932;8.308;2022-10-16T09:17:24;17.40;99.90
12557;DHT22;6344;49.932;8.308;2022-10-16T09:19:58;17.30;99.90
12557;DHT22;6344;49.932;8.308;2022-10-16T09:22:31;17.40;99.90
12557;DHT22;6344;49.932;8.308;2022-10-16T09:25:00;17.80;99.90
12557;DHT22;6344;49.932;8.308;2022-10-16T09:27:27;18.10;99.90
12557;DHT22;6344;49.932;8.308;2022-10-16T09:29:53;18.00;99.90
12557;DHT22;6344;49.932;8.308;2022-10-16T09:32:22;18.00;99.90
12557;DHT22;6344;49.932;8.308;2022-10-16T09:34:52;17.90;99.90
12557;DHT22;6344;49.932;8.308;2022-10-16T09:37:21;18.00;99.90
12557;DHT22;6344;49.932;8.308;2022-10-16T09:39:50;18.10;99.90
12557;DHT22;6344;49.932;8.308;2022-10-16T09:42:17;18.10;99.90
12557;DHT22;6344;49.932;8.308;2022-10-16T09:44:48;18.00;99.90
12557;DHT22;6344;49.932;8.308;2022-10-16T09:47:18;17.90;99.90
12557;DHT22;6344;49.932;8.308;2022-10-16T09:49:53;18.00;99.90
12557;DHT22;6344;49.932;8.308;2022-10-16T09:52:21;18.00;99.90
12557;DHT22;6344;49.932;8.308;2022-10-16T09:54:53;18.00;99.90
12557;DHT22;6344;49.932;8.308;2022-10-16T09:57:21;18.10;99.90
12557;DHT22;6344;49.932;8.308;2022-10-16T09:59:49;18.20;99.90
12557;DHT22;6344;49.932;8.308;2022-10-16T10:02:18;18.20;99.90
12557;DHT22;6344;49.932;8.308;2022-10-16T10:04:49;18.40;99.90
12557;DHT22;6344;49.932;8.308;2022-10-16T10:07:25;18.50;99.90
12557;DHT22;6344;49.932;8.308;2022-10-16T10:09:53;18.20;99.90
12557;DHT22;6344;49.932;8.308;2022-10-16T10:12:23;18.40;99.90
12557;DHT22;6344;49.932;8.308;2022-10-16T10:14:51;18.60;99.90
12557;DHT22;6344;49.932;8.308;2022-10-16T10:17:20;18.90;99.90
12557;DHT22;6344;49.932;8.308;2022-10-16T10:19:50;19.40;99.90
12557;DHT22;6344;49.932;8.308;2022-10-16T10:22:21;19.80;99.90
12557;DHT22;6344;49.932;8.308;2022-10-16T10:28:24;20.40;99.90
12557;DHT22;6344;49.932;8.308;2022-10-16T10:30:59;20.30;99.90
12557;DHT22;6344;49.932;8.308;2022-10-16T10:33:33;20.40;99.90
12557;DHT22;6344;49.932;8.308;2022-10-16T10:36:12;20.60;99.90
12557;DHT22;6344;49.932;8.308;2022-10-16T10:38:47;20.70;99.90
12557;DHT22;6344;49.932;8.308;2022-10-16T10:44:18;21.10;43.40
12557;DHT22;6344;49.932;8.308;2022-10-16T10:46:50;21.30;1.00
12557;DHT22;6344;49.932;8.308;2022-10-16T10:49:30;21.00;99.90
12557;DHT22;6344;49.932;8.308;2022-10-16T10:52:10;21.20;1.00
12557;DHT22;6344;49.932;8.308;2022-10-16T10:54:49;20.70;99.90
12557;DHT22;6344;49.932;8.308;2022-10-16T10:57:22;20.60;99.90
12557;DHT22;6344;49.932;8.308;2022-10-16T11:00:03;21.00;99.90
12557;DHT22;6344;49.932;8.308;2022-10-16T11:02:37;21.30;99.90
12557;DHT22;6344;49.932;8.308;2022-10-16T11:08:00;21.50;99.90
12557;DHT22;6344;49.932;8.308;2022-10-16T11:10:32;21.50;99.90
12557;DHT22;6344;49.932;8.308;2022-10-16T11:13:10;21.10;99.90
12557;DHT22;6344;49.932;8.308;2022-10-16T11:15:44;20.80;99.90
12557;DHT22;6344;49.932;8.308;2022-10-16T11:18:18;20.70;99.90
12557;DHT22;6344;49.932;8.308;2022-10-16T11:20:50;20.80;99.90
12557;DHT22;6344;49.932;8.308;2022-10-16T11:23:23;20.60;99.90
12557;DHT22;6344;49.932;8.308;2022-10-16T11:25:52;20.80;99.90
12557;DHT22;6344;49.932;8.308;2022-10-16T11:28:23;20.40;99.90
12557;DHT22;6344;49.932;8.308;2022-10-16T11:30:55;20.40;99.90
12557;DHT22;6344;49.932;8.308;2022-10-16T11:33:28;20.40;99.90
12557;DHT22;6344;49.932;8.308;2022-10-16T11:36:03;20.60;99.90
12557;DHT22;6344;49.932;8.308;2022-10-16T11:38:34;21.40;99.90
12557;DHT22;6344;49.932;8.308;2022-10-16T11:41:09;22.30;99.90
12557;DHT22;6344;49.932;8.308;2022-10-16T11:43:45;22.70;1.00
12557;DHT22;6344;49.932;8.308;2022-10-16T11:46:17;22.60;1.00
12557;DHT22;6344;49.932;8.308;2022-10-16T11:48:49;23.00;1.00
12557;DHT22;6344;49.932;8.308;2022-10-16T11:51:25;22.80;1.00
12557;DHT22;6344;49.932;8.308;2022-10-16T11:54:01;22.70;99.90
12557;DHT22;6344;49.932;8.308;2022-10-16T11:56:31;23.20;99.90
12557;DHT22;6344;49.932;8.308;2022-10-16T11:59:03;23.20;99.90
12557;DHT22;6344;49.932;8.308;2022-10-16T12:01:38;23.10;99.90
12557;DHT22;6344;49.932;8.308;2022-10-16T12:04:16;22.90;99.90
12557;DHT22;6344;49.932;8.308;2022-10-16T12:06:48;23.00;99.90
12557;DHT22;6344;49.932;8.308;2022-10-16T12:09:22;22.90;99.90
12557;DHT22;6344;49.932;8.308;2022-10-16T12:11:49;23.00;99.90
12557;DHT22;6344;49.932;8.308;2022-10-16T12:14:33;23.60;3.90
12557;DHT22;6344;49.932;8.308;2022-10-16T12:17:02;23.60;99.90
12557;DHT22;6344;49.932;8.308;2022-10-16T12:19:31;23.90;99.90
12557;DHT22;6344;49.932;8.308;2022-10-16T12:21:59;25.10;99.90
12557;DHT22;6344;49.932;8.308;2022-10-16T12:24:36;24.60;99.90
12557;DHT22;6344;49.932;8.308;2022-10-16T12:27:04;24.50;99.90
12557;DHT22;6344;49.932;8.308;2022-10-16T12:29:36;24.80;1.00
12557;DHT22;6344;49.932;8.308;2022-10-16T12:32:05;25.10;1.00
12557;DHT22;6344;49.932;8.308;2022-10-16T12:34:38;25.40;1.00
12557;DHT22;6344;49.932;8.308;2022-10-16T12:37:14;26.30;99.90
12557;DHT22;6344;49.932;8.308;2022-10-16T12:39:45;26.90;99.90
12557;DHT22;6344;49.932;8.308;2022-10-16T12:42:22;26.70;99.90
12557;DHT22;6344;49.932;8.308;2022-10-16T12:44:50;26.80;99.90
12557;DHT22;6344;49.932;8.308;2022-10-16T12:47:23;25.70;99.90
12557;DHT22;6344;49.932;8.308;2022-10-16T12:49:52;25.00;99.90
12557;DHT22;6344;49.932;8.308;2022-10-16T12:52:26;24.70;1.00
12557;DHT22;6344;49.932;8.308;2022-10-16T12:54:56;24.00;1.00
12557;DHT22;6344;49.932;8.308;2022-10-16T12:57:37;23.60;1.00
12557;DHT22;6344;49.932;8.308;2022-10-16T13:00:18;23.20;99.90
12557;DHT22;6344;49.932;8.308;2022-10-16T13:03:11;23.10;99.90
12557;DHT22;6344;49.932;8.308;2022-10-16T13:05:56;23.00;99.90
12557;DHT22;6344;49.932;8.308;2022-10-16T13:08:38;22.90;99.90
12557;DHT22;6344;49.932;8.308;2022-10-16T13:11:17;23.00;54.00
12557;DHT22;6344;49.932;8.308;2022-10-16T13:16:48;23.20;47.50
12557;DHT22;6344;49.932;8.308;2022-10-16T13:19:24;23.10;1.00
12557;DHT22;6344;49.932;8.308;2022-10-16T13:22:01;23.20;1.00
12557;DHT22;6344;49.932;8.308;2022-10-16T13:24:42;23.60;1.00
12557;DHT22;6344;49.932;8.308;2022-10-16T13:27:20;23.60;1.00
12557;DHT22;6344;49.932;8.308;2022-10-16T13:29:52;23.30;1.00
12557;DHT22;6344;49.932;8.308;2022-10-16T13:32:22;23.40;1.00
12557;DHT22;6344;49.932;8.308;2022-10-16T13:34:49;23.20;97.20
12557;DHT22;6344;49.932;8.308;2022-10-16T13:37:20;23.20;96.30
12557;DHT22;6344;49.932;8.308;2022-10-16T13:39:48;22.80;1.00
12557;DHT22;6344;49.932;8.308;2022-10-16T13:42:22;22.70;1.00
12557;DHT22;6344;49.932;8.308;2022-10-16T13:44:51;22.70;99.90
12557;DHT22;6344;49.932;8.308;2022-10-16T13:47:20;22.50;1.00
12557;DHT22;6344;49.932;8.308;2022-10-16T13:49:59;22.10;1.00
12557;DHT22;6344;49.932;8.308;2022-10-16T13:52:26;22.10;1.00
12557;DHT22;6344;49.932;8.308;2022-10-16T13:54:53;22.20;1.00
12557;DHT22;6344;49.932;8.308;2022-10-16T13:57:22;21.80;99.90
12557;DHT22;6344;49.932;8.308;2022-10-16T13:59:49;21.40;1.00
12557;DHT22;6344;49.932;8.308;2022-10-16T14:02:21;21.40;1.00
12557;DHT22;6344;49.932;8.308;2022-10-16T14:04:50;21.30;34.90
12557;DHT22;6344;49.932;8.308;2022-10-16T14:07:22;21.50;1.00
12557;DHT22;6344;49.932;8.308;2022-10-16T14:09:51;21.50;99.90
12557;DHT22;6344;49.932;8.308;2022-10-16T14:12:18;21.70;1.00
12557;DHT22;6344;49.932;8.308;2022-10-16T14:14:47;22.00;99.90
12557;DHT22;6344;49.932;8.308;2022-10-16T14:17:15;21.80;99.90
12557;DHT22;6344;49.932;8.308;2022-10-16T14:19:46;21.60;99.90
12557;DHT22;6344;49.932;8.308;2022-10-16T14:22:26;21.50;1.00
12557;DHT22;6344;49.932;8.308;2022-10-16T14:24:53;21.70;1.00
12557;DHT22;6344;49.932;8.308;2022-10-16T14:27:30;21.80;99.90
12557;DHT22;6344;49.932;8.308;2022-10-16T14:30:13;21.70;99.90
12557;DHT22;6344;49.932;8.308;2022-10-16T14:32:41;21.50;1.00
12557;DHT22;6344;49.932;8.308;2022-10-16T14:35:26;21.50;96.60
12557;DHT22;6344;49.932;8.308;2022-10-16T14:37:56;21.70;99.90
12557;DHT22;6344;49.932;8.308;2022-10-16T14:40:24;21.70;1.00
12557;DHT22;6344;49.932;8.308;2022-10-16T14:42:52;21.80;99.90
12557;DHT22;6344;49.932;8.308;2022-10-16T14:45:21;21.90;99.90
12557;DHT22;6344;49.932;8.308;2022-10-16T14:47:50;21.80;1.00
12557;DHT22;6344;49.932;8.308;2022-10-16T14:50:18;21.80;1.00
12557;DHT22;6344;49.932;8.308;2022-10-16T14:52:45;22.00;99.90
12557;DHT22;6344;49.932;8.308;2022-10-16T14:55:14;22.10;99.90
12557;DHT22;6344;49.932;8.308;2022-10-16T14:57:41;22.10;99.90
12557;DHT22;6344;49.932;8.308;2022-10-16T15:00:15;22.30;1.00
12557;DHT22;6344;49.932;8.308;2022-10-16T15:02:42;22.10;1.00
12557;DHT22;6344;49.932;8.308;2022-10-16T15:05:14;22.00;99.90
12557;DHT22;6344;49.932;8.308;2022-10-16T15:07:42;21.80;90.50
12557;DHT22;6344;49.932;8.308;2022-10-16T15:10:09;21.70;99.90
12557;DHT22;6344;49.932;8.308;2022-10-16T15:12:37;21.60;99.90
12557;DHT22;6344;49.932;8.308;2022-10-16T15:15:21;21.70;1.00
12557;DHT22;6344;49.932;8.308;2022-10-16T15:17:50;21.60;1.00
12557;DHT22;6344;49.932;8.308;2022-10-16T15:20:17;21.50;1.00
12557;DHT22;6344;49.932;8.308;2022-10-16T15:22:44;21.60;1.00
12557;DHT22;6344;49.932;8.308;2022-10-16T15:25:25;21.70;99.90
12557;DHT22;6344;49.932;8.308;2022-10-16T15:27:54;21.80;1.00
12557;DHT22;6344;49.932;8.308;2022-10-16T15:30:20;21.70;99.90
12557;DHT22;6344;49.932;8.308;2022-10-16T15:32:47;21.50;99.90
12557;DHT22;6344;49.932;8.308;2022-10-16T15:35:14;21.20;99.90
12557;DHT22;6344;49.932;8.308;2022-10-16T15:37:40;21.10;99.90
12557;DHT22;6344;49.932;8.308;2022-10-16T15:40:08;21.20;99.90
12557;DHT22;6344;49.932;8.308;2022-10-16T15:42:35;21.20;99.90
12557;DHT22;6344;49.932;8.308;2022-10-16T15:45:04;21.10;99.90
12557;DHT22;6344;49.932;8.308;2022-10-16T15:47:31;21.10;99.90
12557;DHT22;6344;49.932;8.308;2022-10-16T15:49:58;21.10;99.90
12557;DHT22;6344;49.932;8.308;2022-10-16T15:52:25;21.00;99.90
12557;DHT22;6344;49.932;8.308;2022-10-16T15:54:53;20.80;99.90
12557;DHT22;6344;49.932;8.308;2022-10-16T15:57:20;20.70;99.90
12557;DHT22;6344;49.932;8.308;2022-10-16T15:59:47;20.50;99.90
12557;DHT22;6344;49.932;8.308;2022-10-16T16:02:15;20.50;99.90
12557;DHT22;6344;49.932;8.308;2022-10-16T16:04:42;20.50;99.90
12557;DHT22;6344;49.932;8.308;2022-10-16T16:07:09;20.40;99.90
12557;DHT22;6344;49.932;8.308;2022-10-16T16:09:36;20.40;99.90
12557;DHT22;6344;49.932;8.308;2022-10-16T16:12:03;20.50;99.90
12557;DHT22;6344;49.932;8.308;2022-10-16T16:14:29;20.50;99.90